createdAt,value
2018-09-10T00:00:56.742Z,17.44
2018-09-10T00:01:56.654Z,17.42
2018-09-10T00:02:56.594Z,17.39
2018-09-10T00:03:56.850Z,17.37
2018-09-10T00:04:56.440Z,17.36
2018-09-10T00:05:56.496Z,17.33
2018-09-10T00:06:56.471Z,17.32
2018-09-10T00:07:56.830Z,17.3
2018-09-10T00:08:56.474Z,17.27
2018-09-10T00:09:56.511Z,17.21
2018-09-10T00:10:56.588Z,17.16
2018-09-10T00:11:56.482Z,17.18
2018-09-10T00:12:56.465Z,17.14
2018-09-10T00:13:56.464Z,17.09
2018-09-10T00:14:56.526Z,17.08
2018-09-10T00:15:56.459Z,17.08
2018-09-10T00:16:56.524Z,17.01
2018-09-10T00:17:56.533Z,17.02
2018-09-10T00:18:56.511Z,16.97
2018-09-10T00:19:56.456Z,16.95
2018-09-10T00:20:56.449Z,16.99
2018-09-10T00:21:56.465Z,16.94
2018-09-10T00:22:56.465Z,16.92
2018-09-10T00:23:56.462Z,16.9
2018-09-10T00:24:56.470Z,16.9
2018-09-10T00:25:56.548Z,16.9
2018-09-10T00:26:56.470Z,16.86
2018-09-10T00:27:56.561Z,16.86
2018-09-10T00:28:56.764Z,16.84
2018-09-10T00:29:56.479Z,16.81
2018-09-10T00:30:56.545Z,16.8
2018-09-10T00:31:56.498Z,16.81
2018-09-10T00:32:56.529Z,16.81
2018-09-10T00:33:56.509Z,16.81
2018-09-10T00:34:57.119Z,16.81
2018-09-10T00:35:56.577Z,16.78
2018-09-10T00:36:56.659Z,16.77
2018-09-10T00:37:56.547Z,16.8
2018-09-10T00:38:56.555Z,16.77
2018-09-10T00:39:56.579Z,16.73
2018-09-10T00:40:56.605Z,16.73
2018-09-10T00:41:56.691Z,16.74
2018-09-10T00:42:56.590Z,16.74
2018-09-10T00:43:56.515Z,16.74
2018-09-10T00:44:56.558Z,16.74
2018-09-10T00:45:56.465Z,16.7
2018-09-10T00:46:56.481Z,16.7
2018-09-10T00:47:56.551Z,16.68
2018-09-10T00:48:56.809Z,16.67
2018-09-10T00:49:56.500Z,16.66
2018-09-10T00:50:56.476Z,16.64
2018-09-10T00:51:56.546Z,16.62
2018-09-10T00:52:56.517Z,16.62
2018-09-10T00:53:56.545Z,16.62
2018-09-10T00:54:56.937Z,16.62
2018-09-10T00:55:56.573Z,16.64
2018-09-10T00:56:56.514Z,16.62
2018-09-10T00:57:56.487Z,16.6
2018-09-10T00:58:56.700Z,16.56
2018-09-10T00:59:56.697Z,16.54
2018-09-10T01:00:56.529Z,16.52
2018-09-10T01:01:56.590Z,16.5
2018-09-10T01:02:56.502Z,16.45
2018-09-10T01:03:56.566Z,16.46
2018-09-10T01:04:56.553Z,16.45
2018-09-10T01:05:56.509Z,16.46
2018-09-10T01:06:56.502Z,16.43
2018-09-10T01:07:56.595Z,16.4
2018-09-10T01:08:56.499Z,16.37
2018-09-10T01:09:56.506Z,16.37
2018-09-10T01:10:56.503Z,16.36
2018-09-10T01:11:56.490Z,16.35
2018-09-10T01:12:56.813Z,16.36
2018-09-10T01:13:56.566Z,16.36
2018-09-10T01:14:56.880Z,16.36
2018-09-10T01:15:56.675Z,16.35
2018-09-10T01:16:56.646Z,16.36
2018-09-10T01:17:57.204Z,16.33
2018-09-10T01:18:56.527Z,16.29
2018-09-10T01:19:56.606Z,16.26
2018-09-10T01:20:56.510Z,16.25
2018-09-10T01:21:56.648Z,16.25
2018-09-10T01:22:56.672Z,16.24
2018-09-10T01:23:56.528Z,16.24
2018-09-10T01:24:56.567Z,16.25
2018-09-10T01:25:56.521Z,16.22
2018-09-10T01:26:56.859Z,16.22
2018-09-10T01:27:56.556Z,16.16
2018-09-10T01:28:56.609Z,16.19
2018-09-10T01:29:56.525Z,16.16
2018-09-10T01:30:56.537Z,16.14
2018-09-10T01:31:56.614Z,16.14
2018-09-10T01:32:56.520Z,16.12
2018-09-10T01:33:56.528Z,16.14
2018-09-10T01:34:56.510Z,16.09
2018-09-10T01:35:56.563Z,16.11
2018-09-10T01:36:56.549Z,16.11
2018-09-10T01:37:56.525Z,16.09
2018-09-10T01:38:56.506Z,16.08
2018-09-10T01:39:56.539Z,16.08
2018-09-10T01:40:56.507Z,16.05
2018-09-10T01:41:56.523Z,16.07
2018-09-10T01:42:56.535Z,16.05
2018-09-10T01:43:56.567Z,16.02
2018-09-10T01:44:56.605Z,16.04
2018-09-10T01:45:56.547Z,16.02
2018-09-10T01:46:56.496Z,16.04
2018-09-10T01:47:56.524Z,16.01
2018-09-10T01:48:56.558Z,15.99
2018-09-10T01:49:56.591Z,15.99
2018-09-10T01:50:56.593Z,16.02
2018-09-10T01:51:56.531Z,15.98
2018-09-10T01:52:56.538Z,15.99
2018-09-10T01:53:56.544Z,15.95
2018-09-10T01:54:56.592Z,15.97
2018-09-10T01:55:56.531Z,15.97
2018-09-10T01:56:56.522Z,15.94
2018-09-10T01:57:56.871Z,15.94
2018-09-10T01:58:56.699Z,15.92
2018-09-10T01:59:56.530Z,15.9
2018-09-10T02:00:56.518Z,15.88
2018-09-10T02:01:56.533Z,15.84
2018-09-10T02:02:56.530Z,15.82
2018-09-10T02:03:56.572Z,15.84
2018-09-10T02:04:56.581Z,15.82
2018-09-10T02:05:56.748Z,15.8
2018-09-10T02:06:56.531Z,15.8
2018-09-10T02:07:56.629Z,15.8
2018-09-10T02:08:56.541Z,15.82
2018-09-10T02:09:56.590Z,15.78
2018-09-10T02:10:56.645Z,15.8
2018-09-10T02:11:56.554Z,15.78
2018-09-10T02:12:56.707Z,15.76
2018-09-10T02:13:56.557Z,15.77
2018-09-10T02:14:56.886Z,15.74
2018-09-10T02:15:56.609Z,15.7
2018-09-10T02:16:56.901Z,15.7
2018-09-10T02:17:56.533Z,15.67
2018-09-10T02:18:56.756Z,15.63
2018-09-10T02:19:56.748Z,15.63
2018-09-10T02:20:56.629Z,15.62
2018-09-10T02:21:56.581Z,15.63
2018-09-10T02:22:56.527Z,15.62
2018-09-10T02:23:56.538Z,15.57
2018-09-10T02:24:56.547Z,15.59
2018-09-10T02:25:56.547Z,15.59
2018-09-10T02:26:56.694Z,15.56
2018-09-10T02:27:56.599Z,15.57
2018-09-10T02:28:56.621Z,15.56
2018-09-10T02:29:56.988Z,15.54
2018-09-10T02:30:56.713Z,15.57
2018-09-10T02:31:56.652Z,15.56
2018-09-10T02:32:56.688Z,15.57
2018-09-10T02:33:56.747Z,15.54
2018-09-10T02:34:56.651Z,15.53
2018-09-10T02:35:57.026Z,15.52
2018-09-10T02:36:56.625Z,15.49
2018-09-10T02:37:56.555Z,15.47
2018-09-10T02:38:56.704Z,15.49
2018-09-10T02:39:57.429Z,15.46
2018-09-10T02:40:56.969Z,15.42
2018-09-10T02:41:56.571Z,15.46
2018-09-10T02:42:56.656Z,15.45
2018-09-10T02:43:56.556Z,15.39
2018-09-10T02:44:56.955Z,15.39
2018-09-10T02:45:56.621Z,15.39
2018-09-10T02:46:56.568Z,15.38
2018-09-10T02:47:56.890Z,15.39
2018-09-10T02:48:56.557Z,15.39
2018-09-10T02:49:56.551Z,15.38
2018-09-10T02:50:56.779Z,15.41
2018-09-10T02:51:56.582Z,15.41
2018-09-10T02:52:56.644Z,15.39
2018-09-10T02:53:56.607Z,15.39
2018-09-10T02:54:56.727Z,15.35
2018-09-10T02:55:56.554Z,15.35
2018-09-10T02:56:56.685Z,15.35
2018-09-10T02:57:56.700Z,15.35
2018-09-10T02:58:56.562Z,15.34
2018-09-10T02:59:56.543Z,15.34
2018-09-10T03:00:56.561Z,15.31
2018-09-10T03:01:56.559Z,15.31
2018-09-10T03:02:56.580Z,15.29
2018-09-10T03:03:56.564Z,15.29
2018-09-10T03:04:56.579Z,15.25
2018-09-10T03:05:56.556Z,15.26
2018-09-10T03:06:56.712Z,15.25
2018-09-10T03:07:56.599Z,15.21
2018-09-10T03:08:56.571Z,15.25
2018-09-10T03:09:56.606Z,15.23
2018-09-10T03:10:56.602Z,15.22
2018-09-10T03:11:56.626Z,15.23
2018-09-10T03:12:56.608Z,15.23
2018-09-10T03:13:56.614Z,15.21
2018-09-10T03:14:56.589Z,15.19
2018-09-10T03:15:56.584Z,15.21
2018-09-10T03:16:57.231Z,15.18
2018-09-10T03:17:56.816Z,15.14
2018-09-10T03:18:56.699Z,15.15
2018-09-10T03:19:57.009Z,15.19
2018-09-10T03:20:56.685Z,15.12
2018-09-10T03:21:56.645Z,15.12
2018-09-10T03:22:56.720Z,15.11
2018-09-10T03:23:56.993Z,15.11
2018-09-10T03:24:56.557Z,15.12
2018-09-10T03:25:57.380Z,15.12
2018-09-10T03:26:56.716Z,15.11
2018-09-10T03:27:56.882Z,15.15
2018-09-10T03:28:56.727Z,15.09
2018-09-10T03:29:56.589Z,15.09
2018-09-10T03:30:56.612Z,15.08
2018-09-10T03:31:57.107Z,15.11
2018-09-10T03:32:56.664Z,15.09
2018-09-10T03:33:56.674Z,15.08
2018-09-10T03:34:56.922Z,15.02
2018-09-10T03:35:56.789Z,15.02
2018-09-10T03:36:56.600Z,15.05
2018-09-10T03:37:56.584Z,15.02
2018-09-10T03:38:56.632Z,15.02
2018-09-10T03:39:56.599Z,14.95
2018-09-10T03:40:56.871Z,14.95
2018-09-10T03:41:56.626Z,14.97
2018-09-10T03:42:56.578Z,14.98
2018-09-10T03:43:56.610Z,14.95
2018-09-10T03:44:56.631Z,14.97
2018-09-10T03:45:57.031Z,14.92
2018-09-10T03:46:56.582Z,14.94
2018-09-10T03:47:56.626Z,14.97
2018-09-10T03:48:56.673Z,14.97
2018-09-10T03:49:56.728Z,14.98
2018-09-10T03:50:56.581Z,15.01
2018-09-10T03:51:56.638Z,15
2018-09-10T03:52:56.914Z,14.98
2018-09-10T03:53:57.253Z,15
2018-09-10T03:54:56.782Z,15.02
2018-09-10T03:55:56.622Z,15.01
2018-09-10T03:56:56.591Z,15.01
2018-09-10T03:57:56.710Z,14.98
2018-09-10T03:58:56.651Z,14.92
2018-09-10T03:59:56.594Z,14.94
2018-09-10T04:00:56.855Z,14.91
2018-09-10T04:01:56.638Z,14.91
2018-09-10T04:02:56.653Z,14.87
2018-09-10T04:03:58.067Z,14.88
2018-09-10T04:04:56.613Z,14.88
2018-09-10T04:05:57.026Z,14.9
2018-09-10T04:06:56.602Z,14.88
2018-09-10T04:07:56.607Z,14.86
2018-09-10T04:08:56.736Z,14.87
2018-09-10T04:09:56.625Z,14.86
2018-09-10T04:10:56.717Z,14.84
2018-09-10T04:11:56.618Z,14.84
2018-09-10T04:12:57.099Z,14.83
2018-09-10T04:13:56.832Z,14.81
2018-09-10T04:14:56.635Z,14.81
2018-09-10T04:15:56.625Z,14.8
2018-09-10T04:16:56.835Z,14.84
2018-09-10T04:17:56.741Z,14.79
2018-09-10T04:18:56.722Z,14.79
2018-09-10T04:19:56.826Z,14.8
2018-09-10T04:20:56.606Z,14.77
2018-09-10T04:21:56.806Z,14.74
2018-09-10T04:22:56.636Z,14.77
2018-09-10T04:23:56.679Z,14.74
2018-09-10T04:24:56.623Z,14.69
2018-09-10T04:25:56.896Z,14.66
2018-09-10T04:26:56.666Z,14.67
2018-09-10T04:27:56.641Z,14.63
2018-09-10T04:28:56.706Z,14.63
2018-09-10T04:29:56.619Z,14.58
2018-09-10T04:30:56.647Z,14.59
2018-09-10T04:31:56.698Z,14.59
2018-09-10T04:32:56.696Z,14.55
2018-09-10T04:33:56.647Z,14.53
2018-09-10T04:34:57.024Z,14.52
2018-09-10T04:35:56.907Z,14.51
2018-09-10T04:36:57.023Z,14.49
2018-09-10T04:37:56.605Z,14.48
2018-09-10T04:38:56.621Z,14.49
2018-09-10T04:39:56.649Z,14.48
2018-09-10T04:40:56.608Z,14.45
2018-09-10T04:41:56.654Z,14.45
2018-09-10T04:42:56.649Z,14.45
2018-09-10T04:43:56.654Z,14.45
2018-09-10T04:44:56.636Z,14.45
2018-09-10T04:45:57.111Z,14.42
2018-09-10T04:46:56.655Z,14.45
2018-09-10T04:47:57.003Z,14.45
2018-09-10T04:48:56.620Z,14.43
2018-09-10T04:49:56.729Z,14.45
2018-09-10T04:50:56.704Z,14.46
2018-09-10T04:51:56.656Z,14.45
2018-09-10T04:52:56.607Z,14.45
2018-09-10T04:53:56.755Z,14.46
2018-09-10T04:54:56.660Z,14.4
2018-09-10T04:55:56.604Z,14.42
2018-09-10T04:56:56.666Z,14.43
2018-09-10T04:57:56.781Z,14.4
2018-09-10T04:58:56.634Z,14.39
2018-09-10T04:59:56.671Z,14.39
2018-09-10T05:00:56.626Z,14.42
2018-09-10T05:01:56.718Z,14.39
2018-09-10T05:02:56.615Z,14.4
2018-09-10T05:03:56.826Z,14.38
2018-09-10T05:04:56.642Z,14.39
2018-09-10T05:05:56.635Z,14.36
2018-09-10T05:06:56.693Z,14.38
2018-09-10T05:07:57.058Z,14.38
2018-09-10T05:08:57.050Z,14.38
2018-09-10T05:09:56.941Z,14.39
2018-09-10T05:10:56.677Z,14.43
2018-09-10T05:11:56.612Z,14.39
2018-09-10T05:13:03.893Z,14.4
2018-09-10T05:13:56.628Z,14.39
2018-09-10T05:14:56.616Z,14.39
2018-09-10T05:15:56.632Z,14.4
2018-09-10T05:16:56.686Z,14.33
2018-09-10T05:17:56.684Z,14.35
2018-09-10T05:18:57.015Z,14.38
2018-09-10T05:19:56.707Z,14.36
2018-09-10T05:20:56.648Z,14.38
2018-09-10T05:21:57.018Z,14.39
2018-09-10T05:22:56.643Z,14.39
2018-09-10T05:23:56.944Z,14.38
2018-09-10T05:24:56.757Z,14.39
2018-09-10T05:25:56.708Z,14.4
2018-09-10T05:26:57.068Z,14.43
2018-09-10T05:27:56.717Z,14.42
2018-09-10T05:28:57.006Z,14.42
2018-09-10T05:29:56.665Z,14.45
2018-09-10T05:30:56.670Z,14.45
2018-09-10T05:31:56.680Z,14.46
2018-09-10T05:32:56.785Z,14.46
2018-09-10T05:33:56.659Z,14.43
2018-09-10T05:34:57.024Z,14.45
2018-09-10T05:35:56.725Z,14.45
2018-09-10T05:36:56.651Z,14.43
2018-09-10T05:37:56.657Z,14.45
2018-09-10T05:38:56.709Z,14.46
2018-09-10T05:39:57.275Z,14.48
2018-09-10T05:40:56.685Z,14.46
2018-09-10T05:41:56.677Z,14.51
2018-09-10T05:42:56.763Z,14.53
2018-09-10T05:43:56.678Z,14.56
2018-09-10T05:44:56.683Z,14.59
2018-09-10T05:45:56.649Z,14.62
2018-09-10T05:46:57.022Z,14.62
2018-09-10T05:47:56.812Z,14.63
2018-09-10T05:48:56.682Z,14.66
2018-09-10T05:49:56.714Z,14.7
2018-09-10T05:50:56.856Z,14.72
2018-09-10T05:51:56.741Z,14.69
2018-09-10T05:52:56.697Z,14.69
2018-09-10T05:53:56.809Z,14.7
2018-09-10T05:54:56.724Z,14.73
2018-09-10T05:55:56.745Z,14.74
2018-09-10T05:56:56.676Z,14.76
2018-09-10T05:57:56.716Z,14.79
2018-09-10T05:58:56.722Z,14.8
2018-09-10T05:59:56.697Z,14.83
2018-09-10T06:00:57.127Z,14.86
2018-09-10T06:01:56.651Z,14.86
2018-09-10T06:02:56.785Z,14.84
2018-09-10T06:03:56.860Z,14.9
2018-09-10T06:04:56.679Z,14.9
2018-09-10T06:05:56.698Z,14.91
2018-09-10T06:06:56.712Z,14.95
2018-09-10T06:07:56.746Z,14.95
2018-09-10T06:08:56.802Z,15
2018-09-10T06:09:56.785Z,15.04
2018-09-10T06:10:56.743Z,15.04
2018-09-10T06:11:56.765Z,15.07
2018-09-10T06:12:57.084Z,15.09
2018-09-10T06:13:56.833Z,15.09
2018-09-10T06:14:56.896Z,15.12
2018-09-10T06:15:56.847Z,15.15
2018-09-10T06:16:56.768Z,15.17
2018-09-10T06:17:56.771Z,15.21
2018-09-10T06:18:56.663Z,15.22
2018-09-10T06:19:56.684Z,15.29
2018-09-10T06:20:56.692Z,15.28
2018-09-10T06:21:56.674Z,15.31
2018-09-10T06:22:56.734Z,15.34
2018-09-10T06:23:56.797Z,15.35
2018-09-10T06:24:56.705Z,15.36
2018-09-10T06:25:56.757Z,15.38
2018-09-10T06:26:56.739Z,15.42
2018-09-10T06:27:56.704Z,15.45
2018-09-10T06:28:56.706Z,15.47
2018-09-10T06:29:56.676Z,15.49
2018-09-10T06:30:57.104Z,15.5
2018-09-10T06:31:57.107Z,15.57
2018-09-10T06:32:57.010Z,15.57
2018-09-10T06:33:56.791Z,15.6
2018-09-10T06:34:56.925Z,15.63
2018-09-10T06:35:56.683Z,15.64
2018-09-10T06:36:57.214Z,15.69
2018-09-10T06:37:56.672Z,15.71
2018-09-10T06:38:57.053Z,15.76
2018-09-10T06:39:56.780Z,15.81
2018-09-10T06:40:56.792Z,15.84
2018-09-10T06:41:57.074Z,15.85
2018-09-10T06:42:56.771Z,15.87
2018-09-10T06:43:57.018Z,15.91
2018-09-10T06:44:56.699Z,15.94
2018-09-10T06:45:56.770Z,15.98
2018-09-10T06:46:57.111Z,15.98
2018-09-10T06:47:57.124Z,16.02
2018-09-10T06:48:57.044Z,16.05
2018-09-10T06:49:56.710Z,16.08
2018-09-10T06:50:56.700Z,16.12
2018-09-10T06:51:56.699Z,16.15
2018-09-10T06:52:56.767Z,16.18
2018-09-10T06:53:56.748Z,16.22
2018-09-10T06:55:00.058Z,16.25
2018-09-10T06:55:56.725Z,16.28
2018-09-10T06:56:56.692Z,16.31
2018-09-10T06:57:57.002Z,16.33
2018-09-10T06:58:56.724Z,16.32
2018-09-10T06:59:56.711Z,16.37
2018-09-10T07:00:57.003Z,16.42
2018-09-10T07:01:56.733Z,16.45
2018-09-10T07:02:56.701Z,16.49
2018-09-10T07:03:56.710Z,16.5
2018-09-10T07:04:57.002Z,16.54
2018-09-10T07:05:56.852Z,16.57
2018-09-10T07:06:56.772Z,16.62
2018-09-10T07:07:56.848Z,16.66
2018-09-10T07:08:56.692Z,16.66
2018-09-10T07:09:56.728Z,16.71
2018-09-10T07:10:57.189Z,16.74
2018-09-10T07:11:56.897Z,16.77
2018-09-10T07:12:56.834Z,16.83
2018-09-10T07:13:56.748Z,16.83
2018-09-10T07:14:56.718Z,16.87
2018-09-10T07:15:56.783Z,16.88
2018-09-10T07:16:56.820Z,16.95
2018-09-10T07:17:56.777Z,16.97
2018-09-10T07:18:56.930Z,17.02
2018-09-10T07:19:56.689Z,17.07
2018-09-10T07:20:56.748Z,17.09
2018-09-10T07:21:56.766Z,17.08
2018-09-10T07:22:57.047Z,17.12
2018-09-10T07:23:56.720Z,17.15
2018-09-10T07:24:56.701Z,17.21
2018-09-10T07:25:57.288Z,17.26
2018-09-10T07:26:57.073Z,17.27
2018-09-10T07:27:56.977Z,17.35
2018-09-10T07:28:57.233Z,17.37
2018-09-10T07:29:56.787Z,17.42
2018-09-10T07:30:57.064Z,17.42
2018-09-10T07:31:57.057Z,17.5
2018-09-10T07:32:56.801Z,17.53
2018-09-10T07:33:56.944Z,17.6
2018-09-10T07:34:56.716Z,17.61
2018-09-10T07:35:56.733Z,17.66
2018-09-10T07:36:56.769Z,17.69
2018-09-10T07:37:56.787Z,17.73
2018-09-10T07:38:56.779Z,17.74
2018-09-10T07:39:56.777Z,17.8
2018-09-10T07:40:56.861Z,17.81
2018-09-10T07:41:56.742Z,17.84
2018-09-10T07:42:56.777Z,17.88
2018-09-10T07:43:57.223Z,17.92
2018-09-10T07:44:56.737Z,17.92
2018-09-10T07:45:56.846Z,18.01
2018-09-10T07:46:56.816Z,18.02
2018-09-10T07:47:56.731Z,18.04
2018-09-10T07:48:57.050Z,18.06
2018-09-10T07:49:56.762Z,18.12
2018-09-10T07:50:56.761Z,18.13
2018-09-10T07:51:56.749Z,18.11
2018-09-10T07:52:56.977Z,18.13
2018-09-10T07:53:56.749Z,18.16
2018-09-10T07:54:56.804Z,18.2
2018-09-10T07:55:57.070Z,18.2
2018-09-10T07:56:56.764Z,18.23
2018-09-10T07:57:56.769Z,18.25
2018-09-10T07:58:56.911Z,18.26
2018-09-10T07:59:57.225Z,18.29
2018-09-10T08:00:56.732Z,18.3
2018-09-10T08:01:56.763Z,18.29
2018-09-10T08:02:56.955Z,18.32
2018-09-10T08:03:57.163Z,18.36
2018-09-10T08:04:56.745Z,18.39
2018-09-10T08:05:56.745Z,18.42
2018-09-10T08:06:56.795Z,18.42
2018-09-10T08:07:56.731Z,18.42
2018-09-10T08:08:57.053Z,18.44
2018-09-10T08:09:56.770Z,18.46
2018-09-10T08:10:57.068Z,18.49
2018-09-10T08:11:57.373Z,18.52
2018-09-10T08:12:56.762Z,18.53
2018-09-10T08:13:56.783Z,18.56
2018-09-10T08:14:56.748Z,18.6
2018-09-10T08:15:56.961Z,18.61
2018-09-10T08:16:56.805Z,18.61
2018-09-10T08:17:56.761Z,18.63
2018-09-10T08:18:56.749Z,18.64
2018-09-10T08:19:57.022Z,18.64
2018-09-10T08:20:57.036Z,18.64
2018-09-10T08:21:56.758Z,18.68
2018-09-10T08:22:57.000Z,18.7
2018-09-10T08:23:56.834Z,18.75
2018-09-10T08:24:56.860Z,18.8
2018-09-10T08:25:56.821Z,18.84
2018-09-10T08:26:56.794Z,18.88
2018-09-10T08:27:56.761Z,18.97
2018-09-10T08:28:56.801Z,19.02
2018-09-10T08:29:56.734Z,19.08
2018-09-10T08:30:56.796Z,19.13
2018-09-10T08:31:57.006Z,19.22
2018-09-10T08:32:56.794Z,19.27
2018-09-10T08:33:57.489Z,19.34
2018-09-10T08:34:56.819Z,19.4
2018-09-10T08:35:56.964Z,19.47
2018-09-10T08:36:57.140Z,19.51
2018-09-10T08:37:56.801Z,19.51
2018-09-10T08:38:56.756Z,19.54
2018-09-10T08:39:56.803Z,19.58
2018-09-10T08:40:56.755Z,19.62
2018-09-10T08:41:56.764Z,19.7
2018-09-10T08:42:57.089Z,19.7
2018-09-10T08:43:56.767Z,19.72
2018-09-10T08:44:56.893Z,19.71
2018-09-10T08:45:57.100Z,19.74
2018-09-10T08:46:56.784Z,19.78
2018-09-10T08:47:56.754Z,19.85
2018-09-10T08:48:56.832Z,19.92
2018-09-10T08:49:56.752Z,19.93
2018-09-10T08:50:56.789Z,19.99
2018-09-10T08:51:57.010Z,20.05
2018-09-10T08:52:56.952Z,20.09
2018-09-10T08:53:57.040Z,20.12
2018-09-10T08:54:58.511Z,20.16
2018-09-10T08:55:57.859Z,20.22
2018-09-10T08:56:56.800Z,20.3
2018-09-10T08:57:56.791Z,20.3
2018-09-10T08:58:56.828Z,20.33
2018-09-10T08:59:56.949Z,20.37
2018-09-10T09:00:56.985Z,20.4
2018-09-10T09:01:57.095Z,20.4
2018-09-10T09:02:56.956Z,20.41
2018-09-10T09:03:56.773Z,20.43
2018-09-10T09:04:56.852Z,20.46
2018-09-10T09:05:56.943Z,20.48
2018-09-10T09:06:56.794Z,20.5
2018-09-10T09:07:57.078Z,20.48
2018-09-10T09:08:57.156Z,20.51
2018-09-10T09:09:56.776Z,20.57
2018-09-10T09:10:56.784Z,20.58
2018-09-10T09:11:56.854Z,20.61
2018-09-10T09:12:56.808Z,20.62
2018-09-10T09:13:57.037Z,20.65
2018-09-10T09:14:57.021Z,20.7
2018-09-10T09:15:56.875Z,20.71
2018-09-10T09:16:57.008Z,20.72
2018-09-10T09:17:56.816Z,20.74
2018-09-10T09:18:56.773Z,20.71
2018-09-10T09:19:56.950Z,20.75
2018-09-10T09:20:57.079Z,20.78
2018-09-10T09:21:57.177Z,20.79
2018-09-10T09:22:56.800Z,20.82
2018-09-10T09:23:56.841Z,20.85
2018-09-10T09:24:56.828Z,20.85
2018-09-10T09:25:56.805Z,20.89
2018-09-10T09:26:56.808Z,20.89
2018-09-10T09:27:58.439Z,20.88
2018-09-10T09:28:56.902Z,20.91
2018-09-10T09:29:57.141Z,20.94
2018-09-10T09:30:56.844Z,21.02
2018-09-10T09:31:56.903Z,21.03
2018-09-10T09:32:56.788Z,21.03
2018-09-10T09:33:56.973Z,21.03
2018-09-10T09:34:56.927Z,21.03
2018-09-10T09:35:56.841Z,21.06
2018-09-10T09:36:56.813Z,21.07
2018-09-10T09:37:57.150Z,21.13
2018-09-10T09:38:56.882Z,21.15
2018-09-10T09:39:56.809Z,21.19
2018-09-10T09:40:57.031Z,21.22
2018-09-10T09:41:56.978Z,21.22
2018-09-10T09:42:57.806Z,21.23
2018-09-10T09:43:57.031Z,21.29
2018-09-10T09:44:57.127Z,21.33
2018-09-10T09:45:56.905Z,21.32
2018-09-10T09:47:03.276Z,21.36
2018-09-10T09:47:56.801Z,21.36
2018-09-10T09:48:58.360Z,21.4
2018-09-10T09:49:56.991Z,21.46
2018-09-10T09:50:57.511Z,21.46
2018-09-10T09:51:56.878Z,21.49
2018-09-10T09:52:56.806Z,21.53
2018-09-10T09:53:56.814Z,21.54
2018-09-10T09:54:56.817Z,21.6
2018-09-10T09:55:57.104Z,21.64
2018-09-10T09:56:56.801Z,21.67
2018-09-10T09:57:56.839Z,21.75
2018-09-10T09:58:59.921Z,21.79
2018-09-10T09:59:56.924Z,21.84
2018-09-10T10:01:01.228Z,21.85
2018-09-10T10:01:57.013Z,21.85
2018-09-10T10:02:57.202Z,21.94
2018-09-10T10:03:57.240Z,21.99
2018-09-10T10:04:56.889Z,22.05
2018-09-10T10:05:57.160Z,22.05
2018-09-10T10:06:57.151Z,22.09
2018-09-10T10:07:56.888Z,22.13
2018-09-10T10:08:57.020Z,22.16
2018-09-10T10:09:59.645Z,22.22
2018-09-10T10:10:59.183Z,22.24
2018-09-10T10:11:57.072Z,22.34
2018-09-10T10:12:58.658Z,22.41
2018-09-10T10:13:57.019Z,22.53
2018-09-10T10:14:57.003Z,22.6
2018-09-10T10:15:56.836Z,22.57
2018-09-10T10:16:56.872Z,22.64
2018-09-10T10:17:56.825Z,22.72
2018-09-10T10:18:56.839Z,22.76
2018-09-10T10:19:56.829Z,22.78
2018-09-10T10:20:56.828Z,22.86
2018-09-10T10:21:56.995Z,22.94
2018-09-10T10:22:56.868Z,22.95
2018-09-10T10:23:56.887Z,22.99
2018-09-10T10:24:56.895Z,23.07
2018-09-10T10:25:56.906Z,23.13
2018-09-10T10:26:56.980Z,23.12
2018-09-10T10:27:56.879Z,23.16
2018-09-10T10:28:56.922Z,23.2
2018-09-10T10:29:56.952Z,23.29
2018-09-10T10:30:56.935Z,23.32
2018-09-10T10:31:56.868Z,23.36
2018-09-10T10:32:56.945Z,23.34
2018-09-10T10:33:56.909Z,23.41
2018-09-10T10:34:56.904Z,23.53
2018-09-10T10:35:57.661Z,23.65
2018-09-10T10:36:57.127Z,23.69
2018-09-10T10:37:56.839Z,23.74
2018-09-10T10:39:01.161Z,23.8
2018-09-10T10:39:57.043Z,23.84
2018-09-10T10:40:56.840Z,23.82
2018-09-10T10:41:56.923Z,23.85
2018-09-10T10:42:59.090Z,23.88
2018-09-10T10:43:56.995Z,23.89
2018-09-10T10:44:56.850Z,23.93
2018-09-10T10:45:56.974Z,23.96
2018-09-10T10:47:00.529Z,23.95
2018-09-10T10:47:56.947Z,23.95
2018-09-10T10:48:56.977Z,23.98
2018-09-10T10:50:05.973Z,23.99
2018-09-10T10:50:59.352Z,23.99
2018-09-10T10:51:57.493Z,24.02
2018-09-10T10:52:57.825Z,23.96
2018-09-10T10:53:57.880Z,23.99
2018-09-10T10:54:56.966Z,24.01
2018-09-10T10:55:56.975Z,24.05
2018-09-10T10:56:56.963Z,24.01
2018-09-10T10:57:57.511Z,24.02
2018-09-10T10:58:56.942Z,24.06
2018-09-10T10:59:56.889Z,24.1
2018-09-10T11:00:56.983Z,24.12
2018-09-10T11:01:57.081Z,24.12
2018-09-10T11:02:57.008Z,24.13
2018-09-10T11:03:57.130Z,24.12
2018-09-10T11:04:57.135Z,24.17
2018-09-10T11:05:56.968Z,24.13
2018-09-10T11:06:56.895Z,24.16
2018-09-10T11:07:56.854Z,24.17
2018-09-10T11:08:57.138Z,24.24
2018-09-10T11:09:57.508Z,24.27
2018-09-10T11:10:57.217Z,24.24
2018-09-10T11:11:56.902Z,24.21
2018-09-10T11:12:57.125Z,24.21
2018-09-10T11:13:57.729Z,24.23
2018-09-10T11:14:57.303Z,24.26
2018-09-10T11:15:56.934Z,24.27
2018-09-10T11:16:56.888Z,24.33
2018-09-10T11:17:56.970Z,24.36
2018-09-10T11:18:57.062Z,24.39
2018-09-10T11:19:56.886Z,24.5
2018-09-10T11:20:57.044Z,24.48
2018-09-10T11:21:56.995Z,24.53
2018-09-10T11:22:56.905Z,24.57
2018-09-10T11:23:57.055Z,24.58
2018-09-10T11:24:56.965Z,24.6
2018-09-10T11:25:57.409Z,24.63
2018-09-10T11:26:56.986Z,24.63
2018-09-10T11:27:57.042Z,24.63
2018-09-10T11:28:56.999Z,24.65
2018-09-10T11:29:57.020Z,24.65
2018-09-10T11:30:56.897Z,24.68
2018-09-10T11:31:57.000Z,24.71
2018-09-10T11:32:57.452Z,24.7
2018-09-10T11:33:56.984Z,24.81
2018-09-10T11:34:57.037Z,24.86
2018-09-10T11:35:57.015Z,24.92
2018-09-10T11:36:56.930Z,24.99
2018-09-10T11:37:57.166Z,25.02
2018-09-10T11:38:56.906Z,25.06
2018-09-10T11:39:56.892Z,25.05
2018-09-10T11:40:56.929Z,25.12
2018-09-10T11:41:57.091Z,25.13
2018-09-10T11:42:56.954Z,25.13
2018-09-10T11:43:57.001Z,25.16
2018-09-10T11:44:57.242Z,25.17
2018-09-10T11:45:57.028Z,25.29
2018-09-10T11:46:56.919Z,25.2
2018-09-10T11:47:57.083Z,25.17
2018-09-10T11:48:57.261Z,25.2
2018-09-10T11:49:56.916Z,25.19
2018-09-10T11:50:56.909Z,25.22
2018-09-10T11:51:56.905Z,25.3
2018-09-10T11:52:57.033Z,25.3
2018-09-10T11:53:57.460Z,25.33
2018-09-10T11:54:56.934Z,25.34
2018-09-10T11:55:57.023Z,25.37
2018-09-10T11:56:56.898Z,25.41
2018-09-10T11:57:57.070Z,25.56
2018-09-10T11:58:57.074Z,25.56
2018-09-10T11:59:56.965Z,25.56
2018-09-10T12:00:57.088Z,25.56
2018-09-10T12:01:57.066Z,25.6
2018-09-10T12:02:56.947Z,25.54
2018-09-10T12:03:57.037Z,25.61
2018-09-10T12:04:57.053Z,25.6
2018-09-10T12:05:57.119Z,25.61
2018-09-10T12:06:57.004Z,25.53
2018-09-10T12:07:57.164Z,25.5
2018-09-10T12:08:57.169Z,25.48
2018-09-10T12:09:56.999Z,25.54
2018-09-10T12:10:57.030Z,25.56
2018-09-10T12:11:57.150Z,25.63
2018-09-10T12:12:57.047Z,25.7
2018-09-10T12:13:57.907Z,25.72
2018-09-10T12:14:57.047Z,25.74
2018-09-10T12:15:56.936Z,25.74
2018-09-10T12:16:57.014Z,25.82
2018-09-10T12:17:57.066Z,25.84
2018-09-10T12:18:57.019Z,25.88
2018-09-10T12:19:56.987Z,25.91
2018-09-10T12:20:57.022Z,25.95
2018-09-10T12:21:57.096Z,25.95
2018-09-10T12:22:57.270Z,26.02
2018-09-10T12:23:57.428Z,26.02
2018-09-10T12:24:56.991Z,26.06
2018-09-10T12:25:57.014Z,26.09
2018-09-10T12:26:56.978Z,26.19
2018-09-10T12:27:57.136Z,26.17
2018-09-10T12:28:57.053Z,26.15
2018-09-10T12:29:57.034Z,26.16
2018-09-10T12:30:57.233Z,26.17
2018-09-10T12:31:57.354Z,26.23
2018-09-10T12:32:57.079Z,26.29
2018-09-10T12:33:56.946Z,26.26
2018-09-10T12:34:57.014Z,26.32
2018-09-10T12:35:56.985Z,26.33
2018-09-10T12:36:57.010Z,26.4
2018-09-10T12:37:56.954Z,26.43
2018-09-10T12:38:57.530Z,26.42
2018-09-10T12:39:57.236Z,26.39
2018-09-10T12:40:57.135Z,26.37
2018-09-10T12:41:57.034Z,26.43
2018-09-10T12:42:56.935Z,26.42
2018-09-10T12:43:56.994Z,26.43
2018-09-10T12:44:57.538Z,26.43
2018-09-10T12:45:57.080Z,26.5
2018-09-10T12:46:57.085Z,26.48
2018-09-10T12:47:57.129Z,26.48
2018-09-10T12:48:57.293Z,26.53
2018-09-10T12:49:57.167Z,26.54
2018-09-10T12:50:56.939Z,26.57
2018-09-10T12:51:57.005Z,26.62
2018-09-10T12:52:56.938Z,26.65
2018-09-10T12:53:57.024Z,26.7
2018-09-10T12:54:56.967Z,26.77
2018-09-10T12:55:57.069Z,26.78